Time;durP1;ratioP1;P1;durP2;ratioP2;P2;SDS_P1;SDS_P2;PMS_P1;PMS_P2;Temp;Humidity;BMP_temperature;BMP_pressure;BME280_temperature;BME280_humidity;BME280_pressure;Samples;Min_cycle;Max_cycle;Signal;HPM_P1;HPM_P2
2021/06/17 00:02:15;;;;;;;6.03;5.50;;;26.50;99.90;;;;;;5106172;28;20189;-60
2021/06/17 00:04:40;;;;;;;8.23;6.03;;;26.40;99.90;;;;;;5105753;28;20203;-60
2021/06/17 00:07:06;;;;;;;8.05;5.93;;;26.60;99.90;;;;;;5104209;28;20197;-60
2021/06/17 00:09:32;;;;;;;9.00;6.22;;;26.50;99.90;;;;;;5087166;28;20163;-59
2021/06/17 00:12:01;;;;;;;14.32;5.97;;;26.60;99.90;;;;;;5087441;28;20198;-59
2021/06/17 00:14:31;;;;;;;7.70;6.30;;;26.40;99.90;;;;;;5105447;28;20242;-59
2021/06/17 00:16:59;;;;;;;9.43;6.97;;;26.20;99.90;;;;;;5104923;28;20170;-59
2021/06/17 00:19:25;;;;;;;9.20;6.82;;;26.10;99.90;;;;;;5104140;28;20171;-60
2021/06/17 00:21:51;;;;;;;8.15;6.43;;;26.00;99.90;;;;;;5105599;28;20175;-60
2021/06/17 00:24:17;;;;;;;12.50;6.00;;;26.00;99.90;;;;;;5108382;28;20171;-59
2021/06/17 00:26:43;;;;;;;9.27;6.85;;;25.90;99.90;;;;;;5110059;28;20195;-59
2021/06/17 00:29:09;;;;;;;9.25;6.10;;;26.00;99.90;;;;;;5107195;28;20190;-59
2021/06/17 00:31:35;;;;;;;10.00;6.45;;;26.00;99.90;;;;;;5109827;28;20644;-59
2021/06/17 00:34:00;;;;;;;7.13;5.82;;;26.00;99.90;;;;;;5109736;28;20175;-59
2021/06/17 00:36:26;;;;;;;7.75;7.05;;;25.90;99.90;;;;;;5109509;28;20179;-59
2021/06/17 00:38:52;;;;;;;8.18;7.35;;;26.00;99.90;;;;;;5107017;28;20168;-59
2021/06/17 00:41:17;;;;;;;10.95;8.20;;;25.90;99.90;;;;;;5109756;28;20214;-59
2021/06/17 00:43:43;;;;;;;8.48;7.07;;;26.00;99.90;;;;;;5091446;28;20255;-59
2021/06/17 00:46:09;;;;;;;11.70;7.35;;;25.80;99.90;;;;;;5109400;28;20191;-59
2021/06/17 00:48:34;;;;;;;8.48;7.18;;;25.70;99.90;;;;;;5107091;28;20156;-59
2021/06/17 00:51:01;;;;;;;15.15;7.60;;;25.60;99.90;;;;;;5109398;28;20212;-59
2021/06/17 00:53:29;;;;;;;9.60;7.60;;;25.70;99.90;;;;;;5109273;28;20174;-59
2021/06/17 00:55:56;;;;;;;7.72;6.78;;;25.70;99.90;;;;;;5109417;28;20224;-59
2021/06/17 00:58:22;;;;;;;7.00;6.32;;;25.60;99.90;;;;;;5106959;28;20193;-59
2021/06/17 01:00:47;;;;;;;7.53;6.82;;;25.50;99.90;;;;;;5108950;28;20171;-59
2021/06/17 01:03:13;;;;;;;8.65;7.18;;;25.40;99.90;;;;;;5109101;28;20220;-59
2021/06/17 01:05:40;;;;;;;11.10;7.05;;;25.30;99.90;;;;;;5109277;28;20218;-59
2021/06/17 01:08:14;;;;;;;10.10;7.15;;;25.20;99.90;;;;;;5106616;28;20166;-59
2021/06/17 01:10:54;;;;;;;9.40;7.97;;;25.20;99.90;;;;;;5109341;28;20154;-59
2021/06/17 01:13:37;;;;;;;19.25;8.10;;;25.30;99.90;;;;;;5109152;28;20160;-59
2021/06/17 01:16:16;;;;;;;8.73;7.95;;;25.40;99.90;;;;;;5108681;28;20175;-61
2021/06/17 01:18:48;;;;;;;11.40;7.95;;;25.40;99.90;;;;;;5106580;28;20175;-58
2021/06/17 01:21:37;;;;;;;17.20;8.32;;;25.40;99.90;;;;;;5090919;28;20181;-59
2021/06/17 01:24:11;;;;;;;11.18;7.78;;;25.50;99.90;;;;;;5068699;28;20556;-59
2021/06/17 01:26:49;;;;;;;9.20;7.85;;;25.40;99.90;;;;;;5108896;28;20194;-59
2021/06/17 01:29:23;;;;;;;8.48;7.68;;;25.40;99.90;;;;;;5106102;28;20170;-57
2021/06/17 01:31:51;;;;;;;12.15;8.25;;;25.40;99.90;;;;;;5108585;28;20147;-59
2021/06/17 01:34:18;;;;;;;7.75;6.85;;;25.40;99.90;;;;;;5108638;28;20177;-59
2021/06/17 01:36:48;;;;;;;9.27;8.48;;;25.30;99.90;;;;;;5107862;28;20163;-59
2021/06/17 01:39:17;;;;;;;12.07;7.38;;;25.20;99.90;;;;;;5106120;28;20171;-59
2021/06/17 01:41:47;;;;;;;10.90;7.57;;;25.20;99.90;;;;;;5108375;28;20167;-59
2021/06/17 01:44:13;;;;;;;10.40;7.70;;;25.10;99.90;;;;;;5107486;28;20174;-58
2021/06/17 01:46:40;;;;;;;8.60;7.85;;;25.20;99.90;;;;;;5108649;28;20197;-59
2021/06/17 01:49:06;;;;;;;11.07;8.25;;;25.20;99.90;;;;;;5105856;28;20617;-59
2021/06/17 01:51:33;;;;;;;12.45;7.85;;;25.10;99.90;;;;;;5090420;28;20524;-59
2021/06/17 01:54:00;;;;;;;12.15;7.85;;;25.00;99.90;;;;;;5108271;28;20594;-59
2021/06/17 01:56:26;;;;;;;8.98;7.68;;;25.00;99.90;;;;;;5108380;28;20167;-58
2021/06/17 01:58:57;;;;;;;8.70;7.90;;;24.90;99.90;;;;;;5105494;28;20709;-61
2021/06/17 02:01:26;;;;;;;10.88;8.00;;;24.90;99.90;;;;;;5107745;28;20170;-59
2021/06/17 02:03:52;;;;;;;8.63;7.80;;;24.90;99.90;;;;;;5107821;28;20167;-59
2021/06/17 02:06:19;;;;;;;10.23;9.38;;;24.90;99.90;;;;;;5107840;28;20195;-59
2021/06/17 02:08:55;;;;;;;9.82;7.82;;;24.90;99.90;;;;;;5105681;28;20168;-59
2021/06/17 02:11:23;;;;;;;14.80;9.20;;;24.90;99.90;;;;;;5107362;28;20166;-59
2021/06/17 02:13:49;;;;;;;13.38;8.48;;;24.90;99.90;;;;;;5107133;28;20156;-59
2021/06/17 02:16:17;;;;;;;15.27;9.25;;;24.90;99.90;;;;;;5107626;28;20181;-59
2021/06/17 02:18:45;;;;;;;10.15;9.13;;;24.90;99.90;;;;;;5104869;28;20159;-59
2021/06/17 02:21:13;;;;;;;9.48;7.68;;;24.90;99.90;;;;;;5107560;28;20170;-59
2021/06/17 02:23:43;;;;;;;8.25;7.55;;;24.70;99.90;;;;;;5107804;28;20171;-60
2021/06/17 02:26:10;;;;;;;11.00;8.25;;;24.70;99.90;;;;;;5107690;28;20207;-59
2021/06/17 02:28:45;;;;;;;9.73;8.40;;;24.60;99.90;;;;;;5105005;28;20155;-59
2021/06/17 02:31:14;;;;;;;8.82;7.97;;;24.60;99.90;;;;;;5107141;28;20254;-60
2021/06/17 02:33:40;;;;;;;11.02;7.82;;;24.60;99.90;;;;;;5107516;28;20167;-59
2021/06/17 02:36:06;;;;;;;9.85;8.35;;;24.60;99.90;;;;;;5107755;28;20238;-57
2021/06/17 02:38:39;;;;;;;10.02;7.80;;;24.60;99.90;;;;;;5105033;28;20186;-59
2021/06/17 02:41:09;;;;;;;12.27;7.45;;;24.60;99.90;;;;;;5107354;28;20175;-59
2021/06/17 02:43:38;;;;;;;9.38;8.52;;;24.40;99.90;;;;;;5107561;28;20182;-59
2021/06/17 02:46:04;;;;;;;9.10;8.20;;;24.40;99.90;;;;;;5106850;28;20202;-59
2021/06/17 02:48:30;;;;;;;14.73;8.15;;;24.50;99.90;;;;;;5104914;28;20152;-59
2021/06/17 02:50:56;;;;;;;16.35;8.45;;;24.40;99.90;;;;;;5107417;28;20254;-61
2021/06/17 02:53:22;;;;;;;9.20;8.05;;;24.40;99.90;;;;;;5107213;28;20244;-60
2021/06/17 02:55:49;;;;;;;14.02;9.15;;;24.40;99.90;;;;;;5107438;28;20178;-59
2021/06/17 02:58:36;;;;;;;11.75;8.57;;;24.50;99.90;;;;;;5104821;28;20629;-59
2021/06/17 03:01:11;;;;;;;9.35;8.45;;;24.50;99.90;;;;;;5106856;28;20186;-61
2021/06/17 03:03:42;;;;;;;12.23;8.52;;;24.50;99.90;;;;;;5106973;28;20182;-60
2021/06/17 03:06:30;;;;;;;9.45;8.23;;;24.30;99.90;;;;;;5086745;28;20211;-60
2021/06/17 03:08:56;;;;;;;11.90;8.13;;;24.30;99.90;;;;;;5084086;28;20163;-61
2021/06/17 03:11:25;;;;;;;12.55;7.82;;;24.20;99.90;;;;;;5086936;28;20162;-60
2021/06/17 03:13:56;;;;;;;10.45;8.27;;;24.20;99.90;;;;;;5086327;28;20654;-60
2021/06/17 03:16:29;;;;;;;10.93;7.65;;;24.20;99.90;;;;;;5086347;28;20184;-60
2021/06/17 03:19:00;;;;;;;7.78;7.05;;;24.20;99.90;;;;;;5084133;28;20213;-60
2021/06/17 03:21:29;;;;;;;9.18;7.38;;;24.20;99.90;;;;;;5086447;28;20174;-60
2021/06/17 03:23:58;;;;;;;8.52;6.90;;;24.20;99.90;;;;;;5086265;28;20194;-60
2021/06/17 03:26:26;;;;;;;8.45;7.45;;;24.20;99.90;;;;;;5086462;28;20195;-60
2021/06/17 03:28:55;;;;;;;8.00;7.20;;;24.20;99.90;;;;;;5083704;28;20152;-60
2021/06/17 03:31:21;;;;;;;13.20;7.15;;;24.00;99.90;;;;;;5086103;28;20160;-60
2021/06/17 03:33:50;;;;;;;11.93;7.20;;;24.10;99.90;;;;;;5086455;28;20633;-60
2021/06/17 03:36:17;;;;;;;12.32;8.13;;;24.00;99.90;;;;;;5086309;28;20171;-60
2021/06/17 03:38:44;;;;;;;9.15;7.68;;;24.00;99.90;;;;;;5083653;28;20646;-60
2021/06/17 03:41:13;;;;;;;8.32;6.15;;;24.00;99.90;;;;;;5086090;28;20202;-60
2021/06/17 03:43:40;;;;;;;8.68;6.70;;;24.00;99.90;;;;;;5086027;28;20164;-60
2021/06/17 03:46:08;;;;;;;8.70;6.18;;;24.00;99.90;;;;;;5085601;28;20192;-60
2021/06/17 03:48:34;;;;;;;6.53;5.82;;;24.00;99.90;;;;;;5083750;28;20198;-60
2021/06/17 03:51:00;;;;;;;9.27;5.57;;;24.00;99.90;;;;;;5086105;28;20705;-60
2021/06/17 03:53:26;;;;;;;8.30;5.40;;;24.00;99.90;;;;;;5085288;28;20402;-61
2021/06/17 03:55:54;;;;;;;6.55;5.15;;;24.20;99.90;;;;;;5085623;28;20190;-60
2021/06/17 03:58:25;;;;;;;6.15;4.85;;;24.20;99.90;;;;;;5082715;28;20228;-60
2021/06/17 04:00:52;;;;;;;5.90;4.05;;;24.20;99.90;;;;;;5067801;28;20174;-60
2021/06/17 04:03:19;;;;;;;5.95;4.82;;;24.20;99.90;;;;;;5085492;28;20190;-60
2021/06/17 04:05:45;;;;;;;3.92;3.63;;;24.30;99.90;;;;;;5102727;28;20712;-60
2021/06/17 04:08:14;;;;;;;6.38;3.38;;;24.40;99.90;;;;;;5103334;28;20163;-60
2021/06/17 04:10:41;;;;;;;14.07;3.85;;;24.70;99.90;;;;;;5105948;28;20242;-60
2021/06/17 04:13:09;;;;;;;4.20;2.90;;;25.00;99.90;;;;;;5105734;28;20358;-60
2021/06/17 04:15:35;;;;;;;9.80;3.22;;;25.20;99.90;;;;;;5105615;28;20241;-60
2021/06/17 04:18:03;;;;;;;3.67;3.35;;;25.20;99.90;;;;;;5103480;28;20636;-60
2021/06/17 04:20:34;;;;;;;4.97;3.13;;;25.50;99.90;;;;;;5105856;28;20172;-60
2021/06/17 04:23:01;;;;;;;5.63;2.83;;;25.60;99.90;;;;;;5105375;28;20183;-60
2021/06/17 04:25:28;;;;;;;8.27;3.20;;;25.70;99.90;;;;;;5105747;28;20191;-60
2021/06/17 04:28:02;;;;;;;3.95;3.28;;;25.60;99.90;;;;;;5102902;28;20656;-61
2021/06/17 04:30:29;;;;;;;9.00;3.28;;;25.80;99.90;;;;;;5104626;28;20177;-60
2021/06/17 04:32:57;;;;;;;7.68;2.70;;;25.70;99.90;;;;;;5105057;28;20171;-60
2021/06/17 04:35:25;;;;;;;14.68;3.30;;;25.90;99.90;;;;;;5104906;28;20155;-60
2021/06/17 04:37:51;;;;;;;6.10;3.83;;;26.00;99.90;;;;;;5102295;28;20224;-60
2021/06/17 04:40:19;;;;;;;5.40;3.17;;;25.90;99.90;;;;;;5106038;28;20195;-60
2021/06/17 04:42:45;;;;;;;3.22;2.75;;;26.00;99.90;;;;;;5105364;28;20204;-60
2021/06/17 04:45:12;;;;;;;12.35;3.20;;;26.10;99.90;;;;;;5105022;28;20250;-60
2021/06/17 04:47:40;;;;;;;3.60;3.25;;;26.20;99.90;;;;;;5103001;28;20160;-60
2021/06/17 04:50:08;;;;;;;5.35;2.75;;;26.20;99.90;;;;;;5105086;28;20156;-60
2021/06/17 04:52:39;;;;;;;6.63;2.95;;;26.40;99.90;;;;;;5105179;28;20171;-59
2021/06/17 04:55:05;;;;;;;9.50;2.92;;;26.40;99.90;;;;;;5105409;28;20167;-61
2021/06/17 04:57:31;;;;;;;8.70;2.63;;;26.40;99.90;;;;;;5103097;28;20164;-60
2021/06/17 04:59:57;;;;;;;7.28;2.97;;;26.40;99.90;;;;;;5104909;28;20174;-60
2021/06/17 05:02:23;;;;;;;6.40;2.42;;;26.40;99.90;;;;;;5105778;28;20164;-60
2021/06/17 05:04:48;;;;;;;8.45;2.42;;;26.40;99.90;;;;;;5105187;28;20214;-60
2021/06/17 05:12:25;;;;;;;10.82;2.35;;;26.00;99.90;;;;;;5109018;28;20193;-61
2021/06/17 05:14:50;;;;;;;10.60;3.40;;;25.70;99.90;;;;;;5090389;28;20175;-60
2021/06/17 05:17:16;;;;;;;8.98;3.40;;;25.50;99.90;;;;;;5106633;28;20174;-60
2021/06/17 05:19:42;;;;;;;20.27;2.95;;;25.50;99.90;;;;;;5109094;28;20160;-60
2021/06/17 05:22:09;;;;;;;12.90;3.47;;;25.30;99.90;;;;;;5108944;28;20262;-60
2021/06/17 05:24:35;;;;;;;7.20;3.28;;;25.20;99.90;;;;;;5108748;28;20175;-60
2021/06/17 05:27:01;;;;;;;10.15;3.33;;;25.20;99.90;;;;;;5107741;28;20186;-61
2021/06/17 05:29:29;;;;;;;8.02;3.15;;;25.20;99.90;;;;;;5107488;28;20160;-59
2021/06/17 05:31:55;;;;;;;12.90;3.33;;;25.20;99.90;;;;;;5108599;28;20312;-60
2021/06/17 05:34:20;;;;;;;9.18;3.58;;;25.10;99.90;;;;;;5108820;28;20159;-60
2021/06/17 05:36:46;;;;;;;25.55;3.85;;;25.00;99.90;;;;;;5108859;28;20195;-60
2021/06/17 05:39:12;;;;;;;4.22;2.50;;;25.00;99.90;;;;;;5105957;28;20163;-61
2021/06/17 05:41:37;;;;;;;12.30;2.78;;;24.90;99.90;;;;;;5108385;28;20171;-60
2021/06/17 05:44:03;;;;;;;7.35;2.30;;;24.90;99.90;;;;;;5108102;28;20179;-60
2021/06/17 05:46:29;;;;;;;10.27;2.40;;;24.90;99.90;;;;;;5107931;28;20236;-60
2021/06/17 05:48:55;;;;;;;18.80;3.15;;;24.70;99.90;;;;;;5105603;28;20651;-61
2021/06/17 05:51:20;;;;;;;32.35;3.42;;;24.70;99.90;;;;;;5108467;28;20170;-60
2021/06/17 05:53:46;;;;;;;20.63;2.65;;;24.70;99.90;;;;;;5107752;28;20270;-60
2021/06/17 05:56:12;;;;;;;11.75;2.40;;;24.60;99.90;;;;;;5108297;28;20170;-60
2021/06/17 05:58:37;;;;;;;9.18;2.17;;;24.60;99.90;;;;;;5105798;28;20166;-60
2021/06/17 06:01:03;;;;;;;12.35;2.85;;;24.80;99.90;;;;;;5107726;28;20171;-60
2021/06/17 06:03:29;;;;;;;11.60;2.15;;;24.70;99.90;;;;;;5107964;28;20715;-60
2021/06/17 06:05:55;;;;;;;12.85;2.45;;;24.70;99.90;;;;;;5089650;28;20254;-60
2021/06/17 06:08:20;;;;;;;11.82;2.38;;;24.60;99.90;;;;;;5105556;28;20159;-60
2021/06/17 06:10:46;;;;;;;8.68;1.88;;;24.50;99.90;;;;;;5107910;28;20155;-60
2021/06/17 06:13:12;;;;;;;14.70;2.17;;;24.50;99.90;;;;;;5107105;28;20178;-60
2021/06/17 06:15:38;;;;;;;14.77;2.60;;;24.60;99.90;;;;;;5107518;28;20239;-60
2021/06/17 06:18:14;;;;;;;7.80;2.40;;;24.70;99.90;;;;;;5105238;28;20167;-60
2021/06/17 06:20:43;;;;;;;13.77;2.55;;;24.70;99.90;;;;;;5107545;28;20621;-60
2021/06/17 06:23:09;;;;;;;13.25;1.98;;;24.60;99.90;;;;;;5107048;28;20167;-60
2021/06/17 06:25:35;;;;;;;9.02;2.35;;;24.70;99.90;;;;;;5107804;28;20203;-60
2021/06/17 06:28:02;;;;;;;13.27;2.45;;;24.70;99.90;;;;;;5104869;28;20163;-60
2021/06/17 06:30:28;;;;;;;15.02;2.38;;;24.60;99.90;;;;;;5089247;28;20198;-60
2021/06/17 06:32:55;;;;;;;5.82;2.35;;;24.70;99.90;;;;;;5107199;28;20182;-61
2021/06/17 06:35:20;;;;;;;9.75;2.08;;;24.90;99.90;;;;;;5089533;28;20309;-60
2021/06/17 06:37:50;;;;;;;10.18;2.60;;;24.70;99.90;;;;;;5104857;28;20171;-60
2021/06/17 06:40:24;;;;;;;5.97;2.10;;;24.70;99.90;;;;;;5107634;28;20240;-60
2021/06/17 06:42:51;;;;;;;15.70;2.70;;;24.70;99.90;;;;;;5107082;28;20195;-60
2021/06/17 06:45:16;;;;;;;3.50;2.58;;;24.70;99.90;;;;;;5106968;28;20201;-60
2021/06/17 06:47:42;;;;;;;14.85;2.72;;;24.60;99.90;;;;;;5104945;28;20183;-60
2021/06/17 06:50:09;;;;;;;9.15;2.40;;;24.60;99.90;;;;;;5107035;28;20164;-60
2021/06/17 06:52:35;;;;;;;11.52;2.60;;;24.80;99.90;;;;;;5107384;28;20155;-59
2021/06/17 06:55:01;;;;;;;3.88;2.67;;;25.00;99.90;;;;;;5107097;28;20160;-60
2021/06/17 06:57:27;;;;;;;9.50;2.53;;;25.30;99.90;;;;;;5104524;28;20388;-60
2021/06/17 06:59:53;;;;;;;14.73;2.58;;;25.40;99.90;;;;;;5106692;28;20223;-60
2021/06/17 07:02:19;;;;;;;11.93;2.65;;;25.70;99.90;;;;;;5106827;28;20152;-59
2021/06/17 07:04:47;;;;;;;7.78;2.40;;;25.90;99.90;;;;;;5106666;28;20199;-60
2021/06/17 07:07:13;;;;;;;5.82;2.72;;;26.10;99.90;;;;;;5104232;28;20406;-60
2021/06/17 07:09:39;;;;;;;6.75;1.95;;;26.60;99.90;;;;;;5107056;28;20238;-60
2021/06/17 07:12:05;;;;;;;4.03;2.50;;;27.00;99.90;;;;;;5106748;28;20159;-59
2021/06/17 07:14:31;;;;;;;9.13;2.88;;;27.20;99.90;;;;;;5106640;28;20167;-60
2021/06/17 07:16:57;;;;;;;9.75;2.90;;;27.20;99.90;;;;;;5105431;28;20645;-60
2021/06/17 07:19:23;;;;;;;11.35;2.40;;;27.30;99.90;;;;;;5105206;28;20169;-60
2021/06/17 07:21:49;;;;;;;11.82;2.70;;;27.10;99.90;;;;;;5106873;28;20194;-59
2021/06/17 07:24:15;;;;;;;4.43;2.83;;;27.00;99.90;;;;;;5106506;28;20163;-59
2021/06/17 07:26:41;;;;;;;3.78;2.40;;;26.90;99.90;;;;;;5106512;28;20194;-58
2021/06/17 07:29:07;;;;;;;10.05;2.67;;;26.80;99.90;;;;;;5103857;28;20649;-59
2021/06/17 07:31:33;;;;;;;5.20;2.83;;;26.70;99.90;;;;;;5106109;28;20171;-59
2021/06/17 07:33:59;;;;;;;9.75;2.63;;;26.70;99.90;;;;;;5105283;28;20202;-60
2021/06/17 07:36:25;;;;;;;4.30;2.30;;;26.90;99.90;;;;;;5106433;28;20174;-59
2021/06/17 07:38:52;;;;;;;6.55;2.90;;;26.80;99.90;;;;;;5103546;28;20171;-60
2021/06/17 07:41:18;;;;;;;5.53;2.38;;;27.00;99.90;;;;;;5106448;28;20163;-60
2021/06/17 07:43:44;;;;;;;6.88;2.28;;;27.10;99.90;;;;;;5106075;28;20179;-60
2021/06/17 07:46:10;;;;;;;9.25;2.35;;;27.10;99.90;;;;;;5105751;28;20179;-60
2021/06/17 07:48:37;;;;;;;10.93;2.92;;;26.90;99.90;;;;;;5103830;28;20191;-60
2021/06/17 07:51:03;;;;;;;13.38;2.83;;;27.10;99.90;;;;;;5106026;28;20159;-60
2021/06/17 07:53:29;;;;;;;8.50;2.50;;;27.10;99.90;;;;;;5106036;28;20195;-60
2021/06/17 07:55:55;;;;;;;5.90;2.50;;;27.00;99.90;;;;;;5105930;28;20174;-60
2021/06/17 07:58:20;;;;;;;3.92;2.60;;;27.00;99.90;;;;;;5103412;28;20159;-60
2021/06/17 08:00:46;;;;;;;14.93;2.88;;;27.20;99.90;;;;;;5105314;28;20164;-60
2021/06/17 08:03:12;;;;;;;12.75;2.67;;;27.20;99.90;;;;;;5105892;28;20162;-60
2021/06/17 08:05:38;;;;;;;7.22;2.78;;;27.20;99.90;;;;;;5105871;28;20287;-59
2021/06/17 08:08:04;;;;;;;7.68;3.10;;;27.40;99.90;;;;;;5103085;28;20170;-59
2021/06/17 08:10:30;;;;;;;8.57;2.58;;;27.50;99.90;;;;;;5105935;28;20155;-59
2021/06/17 08:12:55;;;;;;;4.82;2.47;;;27.60;99.90;;;;;;5105656;28;20169;-59
2021/06/17 08:15:22;;;;;;;11.23;2.38;;;27.90;99.90;;;;;;5105444;28;20171;-59
2021/06/17 08:17:48;;;;;;;5.20;2.17;;;27.90;99.90;;;;;;5103670;28;20163;-59
2021/06/17 08:20:14;;;;;;;14.07;2.90;;;28.00;99.90;;;;;;5105945;28;20174;-59
2021/06/17 08:22:42;;;;;;;7.57;2.40;;;28.20;99.90;;;;;;5087752;28;20159;-59
2021/06/17 08:25:10;;;;;;;8.05;2.60;;;28.40;99.90;;;;;;5105542;28;20194;-59
2021/06/17 08:27:36;;;;;;;5.03;2.35;;;28.50;99.90;;;;;;5103202;28;20174;-58
2021/06/17 08:30:07;;;;;;;15.23;2.55;;;28.40;99.90;;;;;;5105367;28;20167;-58
2021/06/17 08:32:33;;;;;;;10.60;2.38;;;28.50;99.90;;;;;;5105636;28;20159;-59
2021/06/17 08:34:59;;;;;;;4.82;2.20;;;28.60;99.90;;;;;;5105395;28;20188;-59
2021/06/17 08:37:25;;;;;;;7.70;2.40;;;28.60;99.90;;;;;;5103323;28;20510;-60
2021/06/17 08:39:54;;;;;;;11.73;2.72;;;28.80;99.90;;;;;;5105548;28;20166;-60
2021/06/17 08:42:24;;;;;;;11.95;2.63;;;28.90;99.90;;;;;;5105695;28;20230;-60
2021/06/17 08:44:50;;;;;;;10.00;2.65;;;28.80;99.90;;;;;;5106586;28;20175;-59
2021/06/17 08:47:16;;;;;;;9.65;2.42;;;28.70;99.90;;;;;;5106997;28;20418;-59
2021/06/17 08:49:42;;;;;;;7.20;2.58;;;28.70;99.90;;;;;;5109692;28;20208;-59
2021/06/17 08:52:11;;;;;;;9.65;2.58;;;28.70;99.90;;;;;;5109459;28;20204;-59
2021/06/17 08:54:37;;;;;;;8.57;2.92;;;28.70;99.90;;;;;;5109335;28;20221;-59
2021/06/17 08:57:03;;;;;;;9.43;3.20;;;28.40;99.90;;;;;;5108001;28;20167;-60
2021/06/17 08:59:34;;;;;;;19.35;3.33;;;28.40;99.90;;;;;;5108581;28;20187;-59
2021/06/17 09:02:00;;;;;;;10.07;3.08;;;28.30;99.90;;;;;;5108914;28;20171;-59
2021/06/17 09:04:27;;;;;;;7.28;2.70;;;28.30;99.90;;;;;;5090780;28;20211;-59
2021/06/17 09:07:06;;;;;;;8.95;2.72;;;28.20;99.90;;;;;;5108622;28;20739;-60
2021/06/17 09:09:45;;;;;;;11.07;2.55;;;28.30;99.90;;;;;;5090175;28;20171;-59
2021/06/17 09:12:15;;;;;;;12.20;3.00;;;28.00;99.90;;;;;;5108934;28;20170;-59
2021/06/17 09:14:53;;;;;;;9.20;2.30;;;27.90;99.90;;;;;;5108911;28;20817;-58
2021/06/17 09:17:20;;;;;;;10.75;2.50;;;27.90;99.90;;;;;;5106670;28;20163;-59
2021/06/17 09:19:47;;;;;;;11.93;2.10;;;27.70;99.90;;;;;;5109134;28;20160;-59
2021/06/17 09:22:20;;;;;;;22.05;3.63;;;27.50;99.90;;;;;;5108993;28;20527;-59
2021/06/17 09:24:48;;;;;;;14.95;2.95;;;27.20;99.90;;;;;;5108982;28;20171;-59
2021/06/17 09:27:26;;;;;;;11.38;2.97;;;27.30;99.90;;;;;;5106254;28;20211;-59
2021/06/17 09:30:12;;;;;;;5.63;2.10;;;27.20;99.90;;;;;;5108430;28;20167;-59
2021/06/17 09:32:39;;;;;;;19.17;2.80;;;27.30;99.90;;;;;;5108772;28;20194;-60
2021/06/17 09:35:26;;;;;;;20.67;3.53;;;27.20;99.90;;;;;;5108611;28;20167;-58
2021/06/17 09:38:01;;;;;;;18.75;3.63;;;27.40;99.90;;;;;;5106093;28;20242;-61
2021/06/17 09:40:28;;;;;;;11.68;2.72;;;27.50;99.90;;;;;;5108763;28;20165;-60
2021/06/17 09:43:25;;;;;;;11.00;3.22;;;27.40;99.90;;;;;;5108540;28;20254;-60
2021/06/17 09:45:58;;;;;;;3.88;2.28;;;27.40;99.90;;;;;;5092087;28;20180;-59
2021/06/17 09:48:50;;;;;;;9.98;2.75;;;27.50;99.90;;;;;;5106091;28;20227;-60
2021/06/17 09:51:37;;;;;;;13.63;2.45;;;27.60;99.90;;;;;;5104731;28;20250;-58
2021/06/17 09:54:21;;;;;;;8.98;1.83;;;27.80;99.90;;;;;;5090014;28;20545;-60
2021/06/17 09:56:56;;;;;;;9.98;2.47;;;27.80;99.90;;;;;;5107794;28;20312;-60
2021/06/17 09:59:47;;;;;;;16.52;2.60;;;28.00;99.90;;;;;;5106635;28;20158;-60
2021/06/17 10:02:23;;;;;;;11.95;2.72;;;28.10;99.90;;;;;;5089699;28;20171;-58
2021/06/17 10:04:49;;;;;;;14.98;1.88;;;28.40;99.90;;;;;;5107463;28;20283;-61
2021/06/17 10:07:19;;;;;;;26.52;1.67;;;28.50;99.90;;;;;;5105397;28;20190;-59
2021/06/17 10:09:46;;;;;;;10.95;2.00;;;28.30;99.90;;;;;;5108250;28;20179;-61
2021/06/17 10:12:12;;;;;;;10.98;2.05;;;28.30;99.90;;;;;;5107749;28;20301;-61
2021/06/17 10:14:38;;;;;;;10.43;1.70;;;28.00;99.90;;;;;;5089600;28;20174;-61
2021/06/17 10:17:04;;;;;;;3.58;1.77;;;27.70;99.90;;;;;;5105928;28;20235;-61
2021/06/17 10:19:33;;;;;;;7.45;1.42;;;27.80;99.90;;;;;;5107050;28;20523;-61
2021/06/17 10:22:00;;;;;;;7.25;1.30;;;27.90;99.90;;;;;;5107799;28;20163;-62
2021/06/17 10:24:28;;;;;;;17.77;2.08;;;27.90;99.90;;;;;;5107819;28;20179;-61
2021/06/17 10:26:56;;;;;;;14.85;1.90;;;27.90;99.90;;;;;;5107357;28;20187;-59
2021/06/17 10:29:28;;;;;;;6.53;1.40;;;27.90;99.90;;;;;;5105948;28;20151;-61
2021/06/17 10:31:55;;;;;;;12.82;1.98;;;27.90;99.90;;;;;;5107229;28;20167;-61
2021/06/17 10:34:26;;;;;;;9.90;2.05;;;28.10;99.90;;;;;;5107523;28;20167;-61
2021/06/17 10:37:13;;;;;;;4.35;1.77;;;28.10;99.90;;;;;;5107567;28;20171;-61
2021/06/17 10:39:41;;;;;;;10.40;1.48;;;28.10;99.90;;;;;;5107678;28;20628;-61
2021/06/17 10:42:09;;;;;;;9.45;3.65;;;28.20;99.90;;;;;;5107289;28;20163;-61
2021/06/17 10:44:45;;;;;;;6.80;1.92;;;28.30;99.90;;;;;;5106683;28;20167;-61
2021/06/17 10:47:44;;;;;;;8.85;2.28;;;28.40;99.90;;;;;;5104486;28;20194;-61
2021/06/17 10:50:19;;;;;;;10.52;2.00;;;28.50;99.90;;;;;;5107124;28;20183;-61
2021/06/17 10:52:45;;;;;;;14.40;2.05;;;28.50;99.90;;;;;;5107042;28;20173;-61
2021/06/17 10:55:17;;;;;;;10.07;2.60;;;28.40;99.90;;;;;;5106499;28;20234;-61
2021/06/17 10:57:47;;;;;;;8.25;1.73;;;28.50;99.90;;;;;;5104585;28;20250;-61
2021/06/17 11:00:25;;;;;;;11.40;1.90;;;28.30;99.90;;;;;;5106726;28;20166;-61
2021/06/17 11:03:06;;;;;;;10.98;1.88;;;28.20;99.90;;;;;;5106753;28;20241;-61
2021/06/17 11:05:35;;;;;;;8.88;1.83;;;28.70;99.90;;;;;;5106814;28;20223;-61
2021/06/17 11:08:21;;;;;;;9.30;2.03;;;28.60;99.90;;;;;;5104194;28;20163;-62
2021/06/17 11:10:52;;;;;;;7.75;2.50;;;28.70;99.90;;;;;;5106965;28;20163;-60
2021/06/17 11:13:28;;;;;;;7.03;1.58;;;28.50;99.90;;;;;;5106747;28;20171;-61
2021/06/17 11:15:58;;;;;;;10.07;1.90;;;28.30;99.90;;;;;;5106230;28;20175;-61
2021/06/17 11:21:30;;;;;;;15.65;2.20;;;28.70;99.90;;;;;;5106690;28;20189;-62
2021/06/17 11:24:07;;;;;;;5.88;2.00;;;28.70;99.90;;;;;;5106452;28;20175;-62
2021/06/17 11:26:46;;;;;;;5.22;1.50;;;28.80;99.90;;;;;;5088309;28;20216;-61
2021/06/17 11:29:15;;;;;;;4.90;2.08;;;29.00;99.90;;;;;;5103960;28;20155;-62
2021/06/17 11:31:54;;;;;;;6.68;2.03;;;29.00;99.90;;;;;;5105953;28;20163;-62
2021/06/17 11:34:29;;;;;;;12.63;1.95;;;29.00;99.90;;;;;;5106329;28;20238;-61
2021/06/17 11:36:56;;;;;;;5.80;1.73;;;29.00;99.90;;;;;;5106026;28;20193;-61
2021/06/17 11:39:27;;;;;;;4.90;2.13;;;28.80;99.90;;;;;;5104427;28;20160;-61
2021/06/17 11:41:54;;;;;;;11.40;2.08;;;28.70;99.90;;;;;;5106343;28;20234;-61
2021/06/17 11:44:23;;;;;;;6.10;2.10;;;28.90;99.90;;;;;;5106131;28;20637;-61
2021/06/17 11:46:51;;;;;;;6.18;1.90;;;29.10;99.90;;;;;;5105995;28;20191;-61
2021/06/17 11:49:18;;;;;;;5.10;1.60;;;29.00;99.90;;;;;;5104246;28;20162;-61
2021/06/17 11:51:51;;;;;;;11.65;2.47;;;28.80;99.90;;;;;;5106282;28;20245;-61
2021/06/17 11:54:21;;;;;;;2.92;1.67;;;28.50;99.90;;;;;;5105836;28;20179;-61
2021/06/17 11:56:59;;;;;;;10.57;2.05;;;28.60;99.90;;;;;;5106100;28;20163;-61
2021/06/17 11:59:31;;;;;;;9.10;1.80;;;28.80;99.90;;;;;;5088191;28;20169;-61
2021/06/17 12:02:05;;;;;;;8.05;2.03;;;29.10;99.90;;;;;;5105524;28;20178;-61
2021/06/17 12:07:25;;;;;;;11.48;2.50;;;29.10;99.90;;;;;;5103613;28;20370;-62
2021/06/17 12:09:52;;;;;;;7.25;2.03;;;29.20;99.90;;;;;;5106049;28;20167;-61
2021/06/17 12:12:19;;;;;;;7.45;1.73;;;29.10;99.90;;;;;;5105990;28;20167;-61
2021/06/17 12:14:50;;;;;;;6.97;2.20;;;29.10;99.90;;;;;;5105814;28;20167;-61
2021/06/17 12:17:32;;;;;;;12.25;2.20;;;29.10;99.90;;;;;;5102856;28;20373;-61
2021/06/17 12:20:11;;;;;;;7.03;2.25;;;29.30;99.90;;;;;;5105095;28;20163;-61
2021/06/17 12:22:40;;;;;;;3.33;1.60;;;29.50;99.90;;;;;;5105815;28;20160;-61
2021/06/17 12:25:09;;;;;;;10.48;2.10;;;29.80;99.90;;;;;;5105171;28;20205;-61
2021/06/17 12:27:35;;;;;;;3.88;2.25;;;29.60;99.90;;;;;;5103179;28;20442;-61
2021/06/17 12:30:35;;;;;;;10.13;2.33;;;29.50;99.90;;;;;;5105272;28;20206;-60
2021/06/17 12:33:08;;;;;;;4.80;1.80;;;29.70;99.90;;;;;;5105248;28;20171;-61
2021/06/17 12:35:44;;;;;;;4.90;2.22;;;29.70;99.90;;;;;;5105611;28;20551;-61
2021/06/17 12:38:11;;;;;;;6.45;2.33;;;29.90;99.90;;;;;;5102647;28;20479;-61
2021/06/17 12:40:43;;;;;;;5.63;1.70;;;30.20;99.90;;;;;;5105810;28;20163;-61
2021/06/17 12:43:17;;;;;;;12.55;2.67;;;30.50;99.90;;;;;;5105425;28;20170;-61
2021/06/17 12:46:05;;;;;;;11.52;2.40;;;30.30;99.90;;;;;;5104549;28;20187;-62
2021/06/17 12:54:09;;;;;;;8.27;2.45;;;31.00;99.90;;;;;;5105018;28;20169;-61
2021/06/17 12:56:35;;;;;;;5.20;2.28;;;31.40;99.90;;;;;;5104988;28;20159;-62
2021/06/17 12:59:01;;;;;;;4.30;1.73;;;31.60;99.90;;;;;;5102760;28;20170;-61
2021/06/17 13:01:48;;;;;;;8.50;2.17;;;31.60;99.90;;;;;;5105009;28;20226;-61
2021/06/17 13:04:16;;;;;;;14.50;2.35;;;31.40;99.90;;;;;;5104919;28;20215;-61
2021/06/17 13:06:42;;;;;;;6.50;2.03;;;31.40;99.90;;;;;;5104395;28;20186;-61
2021/06/17 13:09:20;;;;;;;7.55;2.50;;;31.20;99.90;;;;;;5102278;28;20157;-61
2021/06/17 13:11:46;;;;;;;12.75;2.15;;;31.30;99.90;;;;;;5104815;28;20163;-61